sensor_id;sensor_type;location;lat;lon;timestamp;P1;P2;P0
66111;PMS7003;52890;52.490;4.976;2023-04-24T00:00:20;1;0;
66111;PMS7003;52890;52.490;4.976;2023-04-24T00:01:20;0;1;
66111;PMS7003;52890;52.490;4.976;2023-04-24T00:02:20;1;0;
66111;PMS7003;52890;52.490;4.976;2023-04-24T00:03:20;0;1;
66111;PMS7003;52890;52.490;4.976;2023-04-24T00:04:20;0;0;
66111;PMS7003;52890;52.490;4.976;2023-04-24T00:05:20;1;0;
66111;PMS7003;52890;52.490;4.976;2023-04-24T00:06:20;1;1;
66111;PMS7003;52890;52.490;4.976;2023-04-24T00:07:20;0;0;
66111;PMS7003;52890;52.490;4.976;2023-04-24T00:08:20;0;0;
66111;PMS7003;52890;52.490;4.976;2023-04-24T00:09:20;0;0;
66111;PMS7003;52890;52.490;4.976;2023-04-24T00:10:20;0;0;
66111;PMS7003;52890;52.490;4.976;2023-04-24T00:11:20;0;0;
66111;PMS7003;52890;52.490;4.976;2023-04-24T00:12:20;0;0;
66111;PMS7003;52890;52.490;4.976;2023-04-24T00:13:20;0;0;
66111;PMS7003;52890;52.490;4.976;2023-04-24T00:14:20;1;1;
66111;PMS7003;52890;52.490;4.976;2023-04-24T00:15:20;0;0;
66111;PMS7003;52890;52.490;4.976;2023-04-24T00:16:20;0;0;
66111;PMS7003;52890;52.490;4.976;2023-04-24T00:17:20;0;0;
66111;PMS7003;52890;52.490;4.976;2023-04-24T00:18:20;0;0;
66111;PMS7003;52890;52.490;4.976;2023-04-24T00:19:20;0;0;
66111;PMS7003;52890;52.490;4.976;2023-04-24T00:20:20;0;0;
66111;PMS7003;52890;52.490;4.976;2023-04-24T00:21:20;1;1;
66111;PMS7003;52890;52.490;4.976;2023-04-24T00:22:20;0;0;
66111;PMS7003;52890;52.490;4.976;2023-04-24T00:23:20;0;0;
66111;PMS7003;52890;52.490;4.976;2023-04-24T00:24:20;0;0;
66111;PMS7003;52890;52.490;4.976;2023-04-24T00:25:20;0;0;
66111;PMS7003;52890;52.490;4.976;2023-04-24T00:26:20;0;0;
66111;PMS7003;52890;52.490;4.976;2023-04-24T00:27:20;0;0;
66111;PMS7003;52890;52.490;4.976;2023-04-24T00:28:20;0;0;
66111;PMS7003;52890;52.490;4.976;2023-04-24T00:29:20;0;0;
66111;PMS7003;52890;52.490;4.976;2023-04-24T00:30:20;0;0;
66111;PMS7003;52890;52.490;4.976;2023-04-24T00:31:20;0;0;
66111;PMS7003;52890;52.490;4.976;2023-04-24T00:32:20;0;0;
66111;PMS7003;52890;52.490;4.976;2023-04-24T00:33:23;0;0;
66111;PMS7003;52890;52.490;4.976;2023-04-24T00:34:20;0;0;
66111;PMS7003;52890;52.490;4.976;2023-04-24T00:35:20;0;0;
66111;PMS7003;52890;52.490;4.976;2023-04-24T00:36:20;0;0;
66111;PMS7003;52890;52.490;4.976;2023-04-24T00:37:20;0;0;
66111;PMS7003;52890;52.490;4.976;2023-04-24T00:38:20;0;0;
66111;PMS7003;52890;52.490;4.976;2023-04-24T00:39:20;0;0;
66111;PMS7003;52890;52.490;4.976;2023-04-24T00:40:20;0;0;
66111;PMS7003;52890;52.490;4.976;2023-04-24T00:41:20;0;0;
66111;PMS7003;52890;52.490;4.976;2023-04-24T00:42:20;0;0;
66111;PMS7003;52890;52.490;4.976;2023-04-24T00:43:20;0;0;
66111;PMS7003;52890;52.490;4.976;2023-04-24T00:44:20;0;0;
66111;PMS7003;52890;52.490;4.976;2023-04-24T00:45:20;0;0;
66111;PMS7003;52890;52.490;4.976;2023-04-24T00:46:20;0;0;
66111;PMS7003;52890;52.490;4.976;2023-04-24T00:47:20;0;0;
66111;PMS7003;52890;52.490;4.976;2023-04-24T00:48:20;0;0;
66111;PMS7003;52890;52.490;4.976;2023-04-24T00:49:20;0;0;
66111;PMS7003;52890;52.490;4.976;2023-04-24T00:50:20;0;0;
66111;PMS7003;52890;52.490;4.976;2023-04-24T00:51:20;0;0;
66111;PMS7003;52890;52.490;4.976;2023-04-24T00:52:20;0;0;
66111;PMS7003;52890;52.490;4.976;2023-04-24T00:53:20;0;0;
66111;PMS7003;52890;52.490;4.976;2023-04-24T00:54:20;0;0;
66111;PMS7003;52890;52.490;4.976;2023-04-24T00:55:20;0;0;
66111;PMS7003;52890;52.490;4.976;2023-04-24T00:56:20;0;0;
66111;PMS7003;52890;52.490;4.976;2023-04-24T00:57:20;1;1;
66111;PMS7003;52890;52.490;4.976;2023-04-24T00:58:20;0;0;
66111;PMS7003;52890;52.490;4.976;2023-04-24T00:59:20;0;0;
66111;PMS7003;52890;52.490;4.976;2023-04-24T01:00:20;0;0;
66111;PMS7003;52890;52.490;4.976;2023-04-24T01:01:20;0;0;
66111;PMS7003;52890;52.490;4.976;2023-04-24T01:02:20;0;0;
66111;PMS7003;52890;52.490;4.976;2023-04-24T01:03:20;0;0;
66111;PMS7003;52890;52.490;4.976;2023-04-24T01:04:20;0;0;
66111;PMS7003;52890;52.490;4.976;2023-04-24T01:05:20;0;0;
66111;PMS7003;52890;52.490;4.976;2023-04-24T01:06:20;0;0;
66111;PMS7003;52890;52.490;4.976;2023-04-24T01:07:20;0;0;
66111;PMS7003;52890;52.490;4.976;2023-04-24T01:08:20;0;0;
66111;PMS7003;52890;52.490;4.976;2023-04-24T01:09:20;0;0;
66111;PMS7003;52890;52.490;4.976;2023-04-24T01:10:20;0;0;
66111;PMS7003;52890;52.490;4.976;2023-04-24T01:11:20;0;0;
66111;PMS7003;52890;52.490;4.976;2023-04-24T01:12:20;0;0;
66111;PMS7003;52890;52.490;4.976;2023-04-24T01:13:20;0;0;
66111;PMS7003;52890;52.490;4.976;2023-04-24T01:14:20;0;0;
66111;PMS7003;52890;52.490;4.976;2023-04-24T01:15:20;1;1;
66111;PMS7003;52890;52.490;4.976;2023-04-24T01:16:20;0;0;
66111;PMS7003;52890;52.490;4.976;2023-04-24T01:17:20;0;0;
66111;PMS7003;52890;52.490;4.976;2023-04-24T01:19:20;0;0;
66111;PMS7003;52890;52.490;4.976;2023-04-24T01:20:20;0;0;
66111;PMS7003;52890;52.490;4.976;2023-04-24T01:21:20;0;0;
66111;PMS7003;52890;52.490;4.976;2023-04-24T01:22:20;0;0;
66111;PMS7003;52890;52.490;4.976;2023-04-24T01:23:20;0;0;
66111;PMS7003;52890;52.490;4.976;2023-04-24T01:24:20;0;0;
66111;PMS7003;52890;52.490;4.976;2023-04-24T01:25:20;0;0;
66111;PMS7003;52890;52.490;4.976;2023-04-24T01:26:20;0;0;
66111;PMS7003;52890;52.490;4.976;2023-04-24T01:27:20;0;0;
66111;PMS7003;52890;52.490;4.976;2023-04-24T01:28:20;0;0;
66111;PMS7003;52890;52.490;4.976;2023-04-24T01:29:20;0;0;
66111;PMS7003;52890;52.490;4.976;2023-04-24T01:30:20;0;0;
66111;PMS7003;52890;52.490;4.976;2023-04-24T01:31:20;0;0;
66111;PMS7003;52890;52.490;4.976;2023-04-24T01:32:20;0;0;
66111;PMS7003;52890;52.490;4.976;2023-04-24T01:33:20;0;0;
66111;PMS7003;52890;52.490;4.976;2023-04-24T01:34:20;0;0;
66111;PMS7003;52890;52.490;4.976;2023-04-24T01:35:20;0;0;
66111;PMS7003;52890;52.490;4.976;2023-04-24T01:36:20;0;0;
66111;PMS7003;52890;52.490;4.976;2023-04-24T01:37:20;0;0;
66111;PMS7003;52890;52.490;4.976;2023-04-24T01:38:20;0;0;
66111;PMS7003;52890;52.490;4.976;2023-04-24T01:39:20;0;0;
66111;PMS7003;52890;52.490;4.976;2023-04-24T01:40:20;0;0;
66111;PMS7003;52890;52.490;4.976;2023-04-24T01:41:20;0;0;
66111;PMS7003;52890;52.490;4.976;2023-04-24T01:42:21;0;0;
66111;PMS7003;52890;52.490;4.976;2023-04-24T01:43:20;0;0;
66111;PMS7003;52890;52.490;4.976;2023-04-24T01:44:20;1;0;
66111;PMS7003;52890;52.490;4.976;2023-04-24T01:46:20;0;1;
66111;PMS7003;52890;52.490;4.976;2023-04-24T01:47:20;0;0;
66111;PMS7003;52890;52.490;4.976;2023-04-24T01:48:20;1;0;
66111;PMS7003;52890;52.490;4.976;2023-04-24T01:49:20;0;1;
66111;PMS7003;52890;52.490;4.976;2023-04-24T01:50:20;0;0;
66111;PMS7003;52890;52.490;4.976;2023-04-24T01:51:20;0;0;
66111;PMS7003;52890;52.490;4.976;2023-04-24T01:52:20;0;0;
66111;PMS7003;52890;52.490;4.976;2023-04-24T01:53:20;0;0;
66111;PMS7003;52890;52.490;4.976;2023-04-24T01:54:20;0;0;
66111;PMS7003;52890;52.490;4.976;2023-04-24T01:55:20;0;0;
66111;PMS7003;52890;52.490;4.976;2023-04-24T01:56:20;0;0;
66111;PMS7003;52890;52.490;4.976;2023-04-24T01:57:20;0;0;
66111;PMS7003;52890;52.490;4.976;2023-04-24T01:59:20;0;0;
66111;PMS7003;52890;52.490;4.976;2023-04-24T02:00:20;0;0;
66111;PMS7003;52890;52.490;4.976;2023-04-24T02:01:20;0;0;
66111;PMS7003;52890;52.490;4.976;2023-04-24T02:02:20;0;0;
66111;PMS7003;52890;52.490;4.976;2023-04-24T02:04:20;0;0;
66111;PMS7003;52890;52.490;4.976;2023-04-24T02:05:20;0;3;
66111;PMS7003;52890;52.490;4.976;2023-04-24T02:06:20;0;0;
66111;PMS7003;52890;52.490;4.976;2023-04-24T02:07:20;0;0;
66111;PMS7003;52890;52.490;4.976;2023-04-24T02:08:20;0;0;
66111;PMS7003;52890;52.490;4.976;2023-04-24T02:09:20;0;0;
66111;PMS7003;52890;52.490;4.976;2023-04-24T02:10:20;0;0;
66111;PMS7003;52890;52.490;4.976;2023-04-24T02:11:20;0;0;
66111;PMS7003;52890;52.490;4.976;2023-04-24T02:13:20;0;0;
66111;PMS7003;52890;52.490;4.976;2023-04-24T02:14:20;0;0;
66111;PMS7003;52890;52.490;4.976;2023-04-24T02:15:20;0;0;
66111;PMS7003;52890;52.490;4.976;2023-04-24T02:16:20;0;0;
66111;PMS7003;52890;52.490;4.976;2023-04-24T02:17:20;0;0;
66111;PMS7003;52890;52.490;4.976;2023-04-24T02:18:20;0;0;
66111;PMS7003;52890;52.490;4.976;2023-04-24T02:19:20;0;0;
66111;PMS7003;52890;52.490;4.976;2023-04-24T02:20:20;0;0;
66111;PMS7003;52890;52.490;4.976;2023-04-24T02:21:20;0;0;
66111;PMS7003;52890;52.490;4.976;2023-04-24T02:22:20;0;0;
66111;PMS7003;52890;52.490;4.976;2023-04-24T02:23:20;0;0;
66111;PMS7003;52890;52.490;4.976;2023-04-24T02:24:20;0;0;
66111;PMS7003;52890;52.490;4.976;2023-04-24T02:25:20;0;0;
66111;PMS7003;52890;52.490;4.976;2023-04-24T02:26:20;0;0;
66111;PMS7003;52890;52.490;4.976;2023-04-24T02:27:20;0;0;
66111;PMS7003;52890;52.490;4.976;2023-04-24T02:28:20;1;1;
66111;PMS7003;52890;52.490;4.976;2023-04-24T02:29:21;0;0;
66111;PMS7003;52890;52.490;4.976;2023-04-24T02:30:20;0;0;
66111;PMS7003;52890;52.490;4.976;2023-04-24T02:31:20;0;0;
66111;PMS7003;52890;52.490;4.976;2023-04-24T02:32:20;0;0;
66111;PMS7003;52890;52.490;4.976;2023-04-24T02:33:20;0;0;
66111;PMS7003;52890;52.490;4.976;2023-04-24T02:34:20;0;0;
66111;PMS7003;52890;52.490;4.976;2023-04-24T02:35:20;0;0;
66111;PMS7003;52890;52.490;4.976;2023-04-24T02:36:20;0;0;
66111;PMS7003;52890;52.490;4.976;2023-04-24T02:37:20;0;0;
66111;PMS7003;52890;52.490;4.976;2023-04-24T02:38:20;0;0;
66111;PMS7003;52890;52.490;4.976;2023-04-24T02:39:21;0;0;
66111;PMS7003;52890;52.490;4.976;2023-04-24T02:40:20;0;0;
66111;PMS7003;52890;52.490;4.976;2023-04-24T02:41:20;0;0;
66111;PMS7003;52890;52.490;4.976;2023-04-24T02:42:20;0;0;
66111;PMS7003;52890;52.490;4.976;2023-04-24T02:43:20;0;0;
66111;PMS7003;52890;52.490;4.976;2023-04-24T02:44:20;0;0;
66111;PMS7003;52890;52.490;4.976;2023-04-24T02:45:20;0;0;
66111;PMS7003;52890;52.490;4.976;2023-04-24T02:46:20;0;0;
66111;PMS7003;52890;52.490;4.976;2023-04-24T02:47:20;0;0;
66111;PMS7003;52890;52.490;4.976;2023-04-24T02:48:20;0;0;
66111;PMS7003;52890;52.490;4.976;2023-04-24T02:49:20;0;0;
66111;PMS7003;52890;52.490;4.976;2023-04-24T02:50:20;0;0;
66111;PMS7003;52890;52.490;4.976;2023-04-24T02:51:20;0;0;
66111;PMS7003;52890;52.490;4.976;2023-04-24T02:52:20;0;0;
66111;PMS7003;52890;52.490;4.976;2023-04-24T02:53:20;0;0;
66111;PMS7003;52890;52.490;4.976;2023-04-24T02:54:20;0;0;
66111;PMS7003;52890;52.490;4.976;2023-04-24T02:55:20;0;0;
66111;PMS7003;52890;52.490;4.976;2023-04-24T02:56:20;0;0;
66111;PMS7003;52890;52.490;4.976;2023-04-24T02:57:20;0;0;
66111;PMS7003;52890;52.490;4.976;2023-04-24T02:58:20;0;0;
66111;PMS7003;52890;52.490;4.976;2023-04-24T02:59:20;0;0;
66111;PMS7003;52890;52.490;4.976;2023-04-24T03:00:20;0;0;
66111;PMS7003;52890;52.490;4.976;2023-04-24T03:01:20;0;0;
66111;PMS7003;52890;52.490;4.976;2023-04-24T03:02:20;0;0;
66111;PMS7003;52890;52.490;4.976;2023-04-24T03:03:20;0;0;
66111;PMS7003;52890;52.490;4.976;2023-04-24T03:04:20;0;0;
66111;PMS7003;52890;52.490;4.976;2023-04-24T03:05:20;0;0;
66111;PMS7003;52890;52.490;4.976;2023-04-24T03:06:20;0;0;
66111;PMS7003;52890;52.490;4.976;2023-04-24T03:07:20;0;0;
66111;PMS7003;52890;52.490;4.976;2023-04-24T03:08:20;0;0;
66111;PMS7003;52890;52.490;4.976;2023-04-24T03:09:20;0;0;
66111;PMS7003;52890;52.490;4.976;2023-04-24T03:10:20;0;0;
66111;PMS7003;52890;52.490;4.976;2023-04-24T03:11:20;0;0;
66111;PMS7003;52890;52.490;4.976;2023-04-24T03:12:20;0;0;
66111;PMS7003;52890;52.490;4.976;2023-04-24T03:13:20;0;0;
66111;PMS7003;52890;52.490;4.976;2023-04-24T03:16:20;0;0;
66111;PMS7003;52890;52.490;4.976;2023-04-24T03:17:20;0;0;
66111;PMS7003;52890;52.490;4.976;2023-04-24T03:18:20;0;0;
66111;PMS7003;52890;52.490;4.976;2023-04-24T03:19:20;0;0;
66111;PMS7003;52890;52.490;4.976;2023-04-24T03:20:20;0;0;
66111;PMS7003;52890;52.490;4.976;2023-04-24T03:21:20;0;0;
66111;PMS7003;52890;52.490;4.976;2023-04-24T03:22:20;0;0;
66111;PMS7003;52890;52.490;4.976;2023-04-24T03:23:20;1;1;
66111;PMS7003;52890;52.490;4.976;2023-04-24T03:25:20;0;0;
66111;PMS7003;52890;52.490;4.976;2023-04-24T03:26:20;0;0;
66111;PMS7003;52890;52.490;4.976;2023-04-24T03:28:20;0;0;
66111;PMS7003;52890;52.490;4.976;2023-04-24T03:29:20;0;0;
66111;PMS7003;52890;52.490;4.976;2023-04-24T03:30:20;0;0;
66111;PMS7003;52890;52.490;4.976;2023-04-24T03:31:20;0;0;
66111;PMS7003;52890;52.490;4.976;2023-04-24T03:32:20;0;0;
66111;PMS7003;52890;52.490;4.976;2023-04-24T03:34:20;0;2;
66111;PMS7003;52890;52.490;4.976;2023-04-24T03:35:20;0;0;
66111;PMS7003;52890;52.490;4.976;2023-04-24T03:36:20;0;0;
66111;PMS7003;52890;52.490;4.976;2023-04-24T03:37:20;0;0;
66111;PMS7003;52890;52.490;4.976;2023-04-24T03:38:20;0;0;
66111;PMS7003;52890;52.490;4.976;2023-04-24T03:39:20;0;0;
66111;PMS7003;52890;52.490;4.976;2023-04-24T03:40:20;0;0;
66111;PMS7003;52890;52.490;4.976;2023-04-24T03:41:20;0;0;
66111;PMS7003;52890;52.490;4.976;2023-04-24T03:42:20;0;0;
66111;PMS7003;52890;52.490;4.976;2023-04-24T03:43:20;0;0;
66111;PMS7003;52890;52.490;4.976;2023-04-24T03:44:20;0;0;
66111;PMS7003;52890;52.490;4.976;2023-04-24T03:45:20;0;0;
66111;PMS7003;52890;52.490;4.976;2023-04-24T03:46:20;0;0;
66111;PMS7003;52890;52.490;4.976;2023-04-24T03:47:20;0;0;
66111;PMS7003;52890;52.490;4.976;2023-04-24T03:48:20;1;0;
66111;PMS7003;52890;52.490;4.976;2023-04-24T03:49:20;0;1;
66111;PMS7003;52890;52.490;4.976;2023-04-24T03:50:20;0;0;
66111;PMS7003;52890;52.490;4.976;2023-04-24T03:51:20;0;0;
66111;PMS7003;52890;52.490;4.976;2023-04-24T03:52:20;0;0;
66111;PMS7003;52890;52.490;4.976;2023-04-24T03:53:20;0;0;
66111;PMS7003;52890;52.490;4.976;2023-04-24T03:54:20;0;0;
66111;PMS7003;52890;52.490;4.976;2023-04-24T03:55:20;0;0;
66111;PMS7003;52890;52.490;4.976;2023-04-24T03:56:20;0;0;
66111;PMS7003;52890;52.490;4.976;2023-04-24T03:57:20;0;0;
66111;PMS7003;52890;52.490;4.976;2023-04-24T03:58:20;1;0;
66111;PMS7003;52890;52.490;4.976;2023-04-24T03:59:20;0;1;
66111;PMS7003;52890;52.490;4.976;2023-04-24T04:00:20;0;0;
66111;PMS7003;52890;52.490;4.976;2023-04-24T04:02:20;0;0;
66111;PMS7003;52890;52.490;4.976;2023-04-24T04:03:21;0;0;
66111;PMS7003;52890;52.490;4.976;2023-04-24T04:04:21;0;0;
66111;PMS7003;52890;52.490;4.976;2023-04-24T04:05:20;1;0;
66111;PMS7003;52890;52.490;4.976;2023-04-24T04:06:20;0;1;
66111;PMS7003;52890;52.490;4.976;2023-04-24T04:07:20;0;0;
66111;PMS7003;52890;52.490;4.976;2023-04-24T04:08:20;0;0;
66111;PMS7003;52890;52.490;4.976;2023-04-24T04:09:20;0;0;
66111;PMS7003;52890;52.490;4.976;2023-04-24T04:12:20;0;0;
66111;PMS7003;52890;52.490;4.976;2023-04-24T04:13:20;0;0;
66111;PMS7003;52890;52.490;4.976;2023-04-24T04:14:20;0;0;
66111;PMS7003;52890;52.490;4.976;2023-04-24T04:15:20;0;0;
66111;PMS7003;52890;52.490;4.976;2023-04-24T04:17:20;0;2;
66111;PMS7003;52890;52.490;4.976;2023-04-24T04:18:20;0;0;
66111;PMS7003;52890;52.490;4.976;2023-04-24T04:19:20;0;0;
66111;PMS7003;52890;52.490;4.976;2023-04-24T04:20:20;0;0;
66111;PMS7003;52890;52.490;4.976;2023-04-24T04:21:20;1;0;
66111;PMS7003;52890;52.490;4.976;2023-04-24T04:22:20;0;1;
66111;PMS7003;52890;52.490;4.976;2023-04-24T04:23:20;0;0;
66111;PMS7003;52890;52.490;4.976;2023-04-24T04:24:20;0;0;
66111;PMS7003;52890;52.490;4.976;2023-04-24T04:25:20;0;0;
66111;PMS7003;52890;52.490;4.976;2023-04-24T04:26:20;0;0;
66111;PMS7003;52890;52.490;4.976;2023-04-24T04:27:20;0;0;
66111;PMS7003;52890;52.490;4.976;2023-04-24T04:28:20;0;0;
66111;PMS7003;52890;52.490;4.976;2023-04-24T04:29:20;0;0;
66111;PMS7003;52890;52.490;4.976;2023-04-24T04:30:20;0;0;
66111;PMS7003;52890;52.490;4.976;2023-04-24T04:31:20;0;0;
66111;PMS7003;52890;52.490;4.976;2023-04-24T04:32:21;0;0;
66111;PMS7003;52890;52.490;4.976;2023-04-24T04:33:20;0;0;
66111;PMS7003;52890;52.490;4.976;2023-04-24T04:34:20;0;0;
66111;PMS7003;52890;52.490;4.976;2023-04-24T04:35:20;0;0;
66111;PMS7003;52890;52.490;4.976;2023-04-24T04:36:20;0;0;
66111;PMS7003;52890;52.490;4.976;2023-04-24T04:38:20;0;0;
66111;PMS7003;52890;52.490;4.976;2023-04-24T04:39:20;0;0;
66111;PMS7003;52890;52.490;4.976;2023-04-24T04:41:20;0;0;
66111;PMS7003;52890;52.490;4.976;2023-04-24T04:42:20;0;0;
66111;PMS7003;52890;52.490;4.976;2023-04-24T04:43:20;0;0;
66111;PMS7003;52890;52.490;4.976;2023-04-24T04:44:20;0;0;
66111;PMS7003;52890;52.490;4.976;2023-04-24T04:45:20;1;0;
66111;PMS7003;52890;52.490;4.976;2023-04-24T04:46:20;0;1;
66111;PMS7003;52890;52.490;4.976;2023-04-24T04:47:21;0;0;
66111;PMS7003;52890;52.490;4.976;2023-04-24T04:48:20;0;0;
66111;PMS7003;52890;52.490;4.976;2023-04-24T04:49:20;0;0;
66111;PMS7003;52890;52.490;4.976;2023-04-24T04:50:20;0;0;
66111;PMS7003;52890;52.490;4.976;2023-04-24T04:51:20;0;0;
66111;PMS7003;52890;52.490;4.976;2023-04-24T04:52:20;0;0;
66111;PMS7003;52890;52.490;4.976;2023-04-24T04:53:20;0;0;
66111;PMS7003;52890;52.490;4.976;2023-04-24T04:54:20;0;0;
66111;PMS7003;52890;52.490;4.976;2023-04-24T04:55:20;0;0;
66111;PMS7003;52890;52.490;4.976;2023-04-24T04:56:20;0;0;
66111;PMS7003;52890;52.490;4.976;2023-04-24T04:57:20;0;0;
66111;PMS7003;52890;52.490;4.976;2023-04-24T04:58:20;0;0;
66111;PMS7003;52890;52.490;4.976;2023-04-24T04:59:20;0;0;
66111;PMS7003;52890;52.490;4.976;2023-04-24T05:00:20;1;0;
66111;PMS7003;52890;52.490;4.976;2023-04-24T05:01:20;0;1;
66111;PMS7003;52890;52.490;4.976;2023-04-24T05:02:20;0;0;
66111;PMS7003;52890;52.490;4.976;2023-04-24T05:03:20;0;0;
66111;PMS7003;52890;52.490;4.976;2023-04-24T05:04:20;0;0;
66111;PMS7003;52890;52.490;4.976;2023-04-24T05:05:20;1;0;
66111;PMS7003;52890;52.490;4.976;2023-04-24T05:07:20;0;1;
66111;PMS7003;52890;52.490;4.976;2023-04-24T05:08:20;0;3;
66111;PMS7003;52890;52.490;4.976;2023-04-24T05:09:20;0;0;
66111;PMS7003;52890;52.490;4.976;2023-04-24T05:10:20;0;0;
66111;PMS7003;52890;52.490;4.976;2023-04-24T05:11:20;1;0;
66111;PMS7003;52890;52.490;4.976;2023-04-24T05:12:20;0;1;
66111;PMS7003;52890;52.490;4.976;2023-04-24T05:13:21;1;0;
66111;PMS7003;52890;52.490;4.976;2023-04-24T05:14:20;0;1;
66111;PMS7003;52890;52.490;4.976;2023-04-24T05:15:20;1;0;
66111;PMS7003;52890;52.490;4.976;2023-04-24T05:16:20;1;1;
66111;PMS7003;52890;52.490;4.976;2023-04-24T05:17:20;0;1;
66111;PMS7003;52890;52.490;4.976;2023-04-24T05:18:20;0;0;
66111;PMS7003;52890;52.490;4.976;2023-04-24T05:19:20;0;0;
66111;PMS7003;52890;52.490;4.976;2023-04-24T05:20:20;0;0;
66111;PMS7003;52890;52.490;4.976;2023-04-24T05:21:20;0;0;
66111;PMS7003;52890;52.490;4.976;2023-04-24T05:22:20;1;0;
66111;PMS7003;52890;52.490;4.976;2023-04-24T05:23:20;0;1;
66111;PMS7003;52890;52.490;4.976;2023-04-24T05:24:20;0;0;
66111;PMS7003;52890;52.490;4.976;2023-04-24T05:25:20;5;0;
66111;PMS7003;52890;52.490;4.976;2023-04-24T05:26:20;0;5;
66111;PMS7003;52890;52.490;4.976;2023-04-24T05:27:20;2;0;
66111;PMS7003;52890;52.490;4.976;2023-04-24T05:28:20;0;2;
66111;PMS7003;52890;52.490;4.976;2023-04-24T05:29:20;0;0;
66111;PMS7003;52890;52.490;4.976;2023-04-24T05:30:20;2;0;
66111;PMS7003;52890;52.490;4.976;2023-04-24T05:31:20;2;2;
66111;PMS7003;52890;52.490;4.976;2023-04-24T05:32:20;6;2;
66111;PMS7003;52890;52.490;4.976;2023-04-24T05:33:20;7;8;
66111;PMS7003;52890;52.490;4.976;2023-04-24T05:34:20;1;7;
66111;PMS7003;52890;52.490;4.976;2023-04-24T05:35:20;1;1;
66111;PMS7003;52890;52.490;4.976;2023-04-24T05:36:20;0;4;
66111;PMS7003;52890;52.490;4.976;2023-04-24T05:37:20;3;0;
66111;PMS7003;52890;52.490;4.976;2023-04-24T05:38:20;3;3;
66111;PMS7003;52890;52.490;4.976;2023-04-24T05:39:20;2;3;
66111;PMS7003;52890;52.490;4.976;2023-04-24T05:40:20;4;2;
66111;PMS7003;52890;52.490;4.976;2023-04-24T05:41:20;5;4;
66111;PMS7003;52890;52.490;4.976;2023-04-24T05:42:20;9;5;
66111;PMS7003;52890;52.490;4.976;2023-04-24T05:43:20;4;9;
66111;PMS7003;52890;52.490;4.976;2023-04-24T05:44:20;11;4;
66111;PMS7003;52890;52.490;4.976;2023-04-24T05:45:20;12;11;
66111;PMS7003;52890;52.490;4.976;2023-04-24T05:46:20;4;15;
66111;PMS7003;52890;52.490;4.976;2023-04-24T05:47:20;9;4;
66111;PMS7003;52890;52.490;4.976;2023-04-24T05:48:20;11;9;
66111;PMS7003;52890;52.490;4.976;2023-04-24T05:49:20;8;11;
66111;PMS7003;52890;52.490;4.976;2023-04-24T05:50:20;5;8;
66111;PMS7003;52890;52.490;4.976;2023-04-24T05:51:20;3;5;
66111;PMS7003;52890;52.490;4.976;2023-04-24T05:52:20;6;3;
66111;PMS7003;52890;52.490;4.976;2023-04-24T05:53:20;6;6;
66111;PMS7003;52890;52.490;4.976;2023-04-24T05:54:20;6;8;
66111;PMS7003;52890;52.490;4.976;2023-04-24T05:55:20;14;6;
66111;PMS7003;52890;52.490;4.976;2023-04-24T05:56:20;8;14;
66111;PMS7003;52890;52.490;4.976;2023-04-24T05:57:20;8;8;
66111;PMS7003;52890;52.490;4.976;2023-04-24T05:58:20;8;8;
66111;PMS7003;52890;52.490;4.976;2023-04-24T05:59:20;5;10;
66111;PMS7003;52890;52.490;4.976;2023-04-24T06:00:20;5;5;
66111;PMS7003;52890;52.490;4.976;2023-04-24T06:01:20;5;5;
66111;PMS7003;52890;52.490;4.976;2023-04-24T06:02:20;9;7;
66111;PMS7003;52890;52.490;4.976;2023-04-24T06:03:20;6;12;
66111;PMS7003;52890;52.490;4.976;2023-04-24T06:04:20;10;9;
66111;PMS7003;52890;52.490;4.976;2023-04-24T06:05:20;6;10;
66111;PMS7003;52890;52.490;4.976;2023-04-24T06:06:20;6;6;
66111;PMS7003;52890;52.490;4.976;2023-04-24T06:07:20;4;6;
66111;PMS7003;52890;52.490;4.976;2023-04-24T06:08:20;5;4;
66111;PMS7003;52890;52.490;4.976;2023-04-24T06:09:20;5;5;
66111;PMS7003;52890;52.490;4.976;2023-04-24T06:10:20;4;5;
66111;PMS7003;52890;52.490;4.976;2023-04-24T06:11:20;3;4;
66111;PMS7003;52890;52.490;4.976;2023-04-24T06:12:20;6;3;
66111;PMS7003;52890;52.490;4.976;2023-04-24T06:13:20;5;6;
66111;PMS7003;52890;52.490;4.976;2023-04-24T06:14:21;6;5;
66111;PMS7003;52890;52.490;4.976;2023-04-24T06:15:20;7;11;
66111;PMS7003;52890;52.490;4.976;2023-04-24T06:16:20;7;10;
66111;PMS7003;52890;52.490;4.976;2023-04-24T06:17:20;10;7;
66111;PMS7003;52890;52.490;4.976;2023-04-24T06:18:20;8;10;
66111;PMS7003;52890;52.490;4.976;2023-04-24T06:19:20;2;8;
66111;PMS7003;52890;52.490;4.976;2023-04-24T06:20:20;8;2;
66111;PMS7003;52890;52.490;4.976;2023-04-24T06:21:20;7;10;
66111;PMS7003;52890;52.490;4.976;2023-04-24T06:22:20;9;7;
66111;PMS7003;52890;52.490;4.976;2023-04-24T06:23:20;4;9;
66111;PMS7003;52890;52.490;4.976;2023-04-24T06:24:20;6;4;
66111;PMS7003;52890;52.490;4.976;2023-04-24T06:25:21;5;6;
66111;PMS7003;52890;52.490;4.976;2023-04-24T06:26:20;6;5;
66111;PMS7003;52890;52.490;4.976;2023-04-24T06:27:20;7;6;
66111;PMS7003;52890;52.490;4.976;2023-04-24T06:28:20;5;7;
66111;PMS7003;52890;52.490;4.976;2023-04-24T06:29:20;9;5;
66111;PMS7003;52890;52.490;4.976;2023-04-24T06:30:20;6;9;
66111;PMS7003;52890;52.490;4.976;2023-04-24T06:31:20;4;6;
66111;PMS7003;52890;52.490;4.976;2023-04-24T06:32:21;5;4;
66111;PMS7003;52890;52.490;4.976;2023-04-24T06:33:20;6;5;
66111;PMS7003;52890;52.490;4.976;2023-04-24T06:34:20;4;6;
66111;PMS7003;52890;52.490;4.976;2023-04-24T06:36:20;7;7;
66111;PMS7003;52890;52.490;4.976;2023-04-24T06:37:21;5;5;
66111;PMS7003;52890;52.490;4.976;2023-04-24T06:38:20;8;8;
66111;PMS7003;52890;52.490;4.976;2023-04-24T06:40:21;4;5;
66111;PMS7003;52890;52.490;4.976;2023-04-24T06:41:20;5;4;
66111;PMS7003;52890;52.490;4.976;2023-04-24T06:42:20;6;5;
66111;PMS7003;52890;52.490;4.976;2023-04-24T06:43:20;5;6;
66111;PMS7003;52890;52.490;4.976;2023-04-24T06:44:21;4;5;
66111;PMS7003;52890;52.490;4.976;2023-04-24T06:45:20;7;4;
66111;PMS7003;52890;52.490;4.976;2023-04-24T06:46:21;6;7;
66111;PMS7003;52890;52.490;4.976;2023-04-24T06:47:20;10;6;
66111;PMS7003;52890;52.490;4.976;2023-04-24T06:48:20;4;10;
66111;PMS7003;52890;52.490;4.976;2023-04-24T06:49:20;6;7;
66111;PMS7003;52890;52.490;4.976;2023-04-24T06:50:20;4;6;
66111;PMS7003;52890;52.490;4.976;2023-04-24T06:51:21;7;4;
66111;PMS7003;52890;52.490;4.976;2023-04-24T06:52:20;6;7;
66111;PMS7003;52890;52.490;4.976;2023-04-24T06:53:20;6;6;
66111;PMS7003;52890;52.490;4.976;2023-04-24T06:54:20;7;6;
66111;PMS7003;52890;52.490;4.976;2023-04-24T06:55:20;5;7;
66111;PMS7003;52890;52.490;4.976;2023-04-24T06:56:20;5;5;
66111;PMS7003;52890;52.490;4.976;2023-04-24T06:57:20;3;5;
66111;PMS7003;52890;52.490;4.976;2023-04-24T06:58:21;5;7;
66111;PMS7003;52890;52.490;4.976;2023-04-24T06:59:20;4;4;
66111;PMS7003;52890;52.490;4.976;2023-04-24T07:00:20;5;5;
66111;PMS7003;52890;52.490;4.976;2023-04-24T07:01:20;5;5;
66111;PMS7003;52890;52.490;4.976;2023-04-24T07:02:20;7;7;
66111;PMS7003;52890;52.490;4.976;2023-04-24T07:03:20;8;8;
66111;PMS7003;52890;52.490;4.976;2023-04-24T07:04:20;6;6;
66111;PMS7003;52890;52.490;4.976;2023-04-24T07:05:20;4;4;
66111;PMS7003;52890;52.490;4.976;2023-04-24T07:06:20;5;7;
66111;PMS7003;52890;52.490;4.976;2023-04-24T07:07:20;4;4;
66111;PMS7003;52890;52.490;4.976;2023-04-24T07:08:20;5;5;
66111;PMS7003;52890;52.490;4.976;2023-04-24T07:10:20;4;3;
66111;PMS7003;52890;52.490;4.976;2023-04-24T07:11:20;8;4;